Rocky Grove, Pennsylvania
Current Conditions -  °F | °C
As of 4:15 AM on Thursday 27 Nov 2014 (Local Time) from KFKL Reporting Station
Overcast Overcast  
Wind Chill: 30°   Ceiling: 3700
Heat Index: 30°   Visibility: 5mi
Dew Point: 27°   Wind: 3mph
Humidity: 86%   Direction: 240°WSW
Pressure: 29.97"   Gusts: NA
Location:  41.4663°N, 79.8305°W
Report Text: KFKL 270915Z AUTO 24003KT 5SM BKN037 OVC045 M01/M03 A2997 RMK AO1
Loading
Personal Weather Stations






























Interactive Weather Map New forecast layout! Learn more

10-Day Weather Forecast

Advertisements
Track Severe Weather on mobile